首页
METAR-TAF:

METAR-TAF

机场 :

不伦瑞克, 德国

纬度: 52-18N, 经度: 010-27E, 海拔: 81米

当前天气观测

该预报发布于20分钟前的04:50 UTC
风速13节,风向西南
温度 5°C
湿度 87%
气压 1009 hPa
能见度10公里或以上
散云层高于900英尺
阴天层高于1100英尺

METAR: EDVE 190450Z 23013KT 9999 SCT009 OVC011 05/03 Q1009

时间: 06:10 (05:10 UTC)

预报

该预报发布于12小时和10分钟前的17:00 UTC
预报有效从18日的 18点(UTC)到 18日的 21点(UTC)
风速8节,风向南转西南
能见度10公里或以上
少量云层高于1000英尺
多云层高于1500英尺
几率 40% :
短暂存在
从 18日的 18点(UTC)到 18日的 20点(UTC)
多云层高于1300英尺

TAF: EDVE 181700Z 1818/1821 20008KT 9999 FEW010 BKN015 PROB40 TEMPO 1818/1820 BKN013

超过4000个机场的气象观测和天气预报(METAR&TAF报告)。

可查询的气象台以黄色和红色小点在地图上表示。

将鼠标移到小点上方,可查看气象台名称。

然后点击查看天气观测和预报。

如需切换地图:点击带黑十字的绿色按钮放大地图;点击带横线的绿色按钮缩小地图;或者点击绿色箭头查看邻近地区的地图。


METAR-TAF: